sensor_id;sensor_type;location;lat;lon;timestamp;pressure;altitude;pressure_sealevel;temperature;humidity
13604;BME280;24578;48.264;11.436;2022-12-18T00:02:20;97206.19;;;-6.70;100.00
13604;BME280;24578;48.264;11.436;2022-12-18T00:05:22;97207.91;;;-6.69;100.00
13604;BME280;24578;48.264;11.436;2022-12-18T00:08:22;97209.72;;;-6.58;100.00
13604;BME280;24578;48.264;11.436;2022-12-18T00:11:26;97201.25;;;-6.61;100.00
13604;BME280;24578;48.264;11.436;2022-12-18T00:14:26;97209.63;;;-6.64;100.00
13604;BME280;24578;48.264;11.436;2022-12-18T00:17:27;97212.25;;;-6.58;100.00
13604;BME280;24578;48.264;11.436;2022-12-18T00:20:28;97214.03;;;-6.46;100.00
13604;BME280;24578;48.264;11.436;2022-12-18T00:23:29;97221.50;;;-6.53;100.00
13604;BME280;24578;48.264;11.436;2022-12-18T00:26:32;97217.31;;;-6.54;100.00
13604;BME280;24578;48.264;11.436;2022-12-18T00:29:33;97219.84;;;-6.54;100.00
13604;BME280;24578;48.264;11.436;2022-12-18T00:32:34;97242.41;;;-6.61;100.00
13604;BME280;24578;48.264;11.436;2022-12-18T00:35:34;97239.09;;;-6.58;100.00
13604;BME280;24578;48.264;11.436;2022-12-18T00:38:35;97250.91;;;-6.54;100.00
13604;BME280;24578;48.264;11.436;2022-12-18T00:41:35;97254.09;;;-6.67;100.00
13604;BME280;24578;48.264;11.436;2022-12-18T00:44:54;97264.03;;;-6.80;100.00
13604;BME280;24578;48.264;11.436;2022-12-18T00:47:56;97260.50;;;-6.93;100.00
13604;BME280;24578;48.264;11.436;2022-12-18T00:50:57;97264.75;;;-6.87;100.00
13604;BME280;24578;48.264;11.436;2022-12-18T00:53:57;97264.69;;;-6.93;100.00
13604;BME280;24578;48.264;11.436;2022-12-18T00:56:58;97254.56;;;-6.96;100.00
13604;BME280;24578;48.264;11.436;2022-12-18T00:59:58;97265.47;;;-6.97;100.00
13604;BME280;24578;48.264;11.436;2022-12-18T01:02:59;97254.47;;;-7.04;100.00
13604;BME280;24578;48.264;11.436;2022-12-18T01:06:11;97265.47;;;-6.97;100.00
13604;BME280;24578;48.264;11.436;2022-12-18T01:09:12;97267.34;;;-6.82;100.00
13604;BME280;24578;48.264;11.436;2022-12-18T01:12:12;97266.47;;;-6.86;100.00
13604;BME280;24578;48.264;11.436;2022-12-18T01:15:14;97284.09;;;-6.86;100.00
13604;BME280;24578;48.264;11.436;2022-12-18T01:18:14;97280.66;;;-6.91;100.00
13604;BME280;24578;48.264;11.436;2022-12-18T01:21:16;97294.03;;;-6.94;100.00
13604;BME280;24578;48.264;11.436;2022-12-18T01:24:17;97292.28;;;-6.99;100.00
13604;BME280;24578;48.264;11.436;2022-12-18T01:27:17;97297.44;;;-6.90;100.00
13604;BME280;24578;48.264;11.436;2022-12-18T01:30:18;97304.19;;;-6.89;100.00
13604;BME280;24578;48.264;11.436;2022-12-18T01:33:18;97314.50;;;-6.70;100.00
13604;BME280;24578;48.264;11.436;2022-12-18T01:36:28;97321.97;;;-6.77;100.00
13604;BME280;24578;48.264;11.436;2022-12-18T01:39:29;97315.16;;;-6.84;100.00
13604;BME280;24578;48.264;11.436;2022-12-18T01:42:30;97301.72;;;-6.86;100.00
13604;BME280;24578;48.264;11.436;2022-12-18T01:45:31;97314.41;;;-6.78;100.00
13604;BME280;24578;48.264;11.436;2022-12-18T01:48:32;97308.59;;;-6.73;100.00
13604;BME280;24578;48.264;11.436;2022-12-18T01:51:32;97310.28;;;-6.71;100.00
13604;BME280;24578;48.264;11.436;2022-12-18T01:54:33;97295.22;;;-6.68;100.00
13604;BME280;24578;48.264;11.436;2022-12-18T01:57:34;97311.31;;;-6.59;100.00
13604;BME280;24578;48.264;11.436;2022-12-18T02:00:35;97299.63;;;-6.52;100.00
13604;BME280;24578;48.264;11.436;2022-12-18T02:03:36;97291.78;;;-6.75;100.00
13604;BME280;24578;48.264;11.436;2022-12-18T02:06:41;97286.16;;;-6.54;100.00
13604;BME280;24578;48.264;11.436;2022-12-18T02:10:06;97286.94;;;-6.58;100.00
13604;BME280;24578;48.264;11.436;2022-12-18T02:13:38;97291.19;;;-6.55;100.00
13604;BME280;24578;48.264;11.436;2022-12-18T02:16:49;97301.13;;;-6.66;100.00
13604;BME280;24578;48.264;11.436;2022-12-18T02:20:01;97287.66;;;-6.68;100.00
13604;BME280;24578;48.264;11.436;2022-12-18T02:32:36;97285.25;;;-6.62;100.00
13604;BME280;24578;48.264;11.436;2022-12-18T02:35:41;97288.41;;;-6.77;100.00
13604;BME280;24578;48.264;11.436;2022-12-18T02:38:44;97270.91;;;-6.66;100.00
13604;BME280;24578;48.264;11.436;2022-12-18T02:41:46;97275.19;;;-6.59;100.00
13604;BME280;24578;48.264;11.436;2022-12-18T02:44:50;97289.38;;;-6.67;100.00
13604;BME280;24578;48.264;11.436;2022-12-18T02:47:51;97295.56;;;-6.40;100.00
13604;BME280;24578;48.264;11.436;2022-12-18T02:51:04;97297.03;;;-6.60;100.00
13604;BME280;24578;48.264;11.436;2022-12-18T03:01:16;97296.88;;;-6.70;100.00
13604;BME280;24578;48.264;11.436;2022-12-18T03:04:30;97273.47;;;-6.62;100.00
13604;BME280;24578;48.264;11.436;2022-12-18T03:07:39;97269.06;;;-6.78;100.00
13604;BME280;24578;48.264;11.436;2022-12-18T03:10:48;97276.78;;;-6.66;100.00
13604;BME280;24578;48.264;11.436;2022-12-18T03:13:54;97284.44;;;-6.58;100.00
13604;BME280;24578;48.264;11.436;2022-12-18T03:17:02;97281.03;;;-6.63;100.00
13604;BME280;24578;48.264;11.436;2022-12-18T03:20:12;97276.63;;;-6.80;100.00
13604;BME280;24578;48.264;11.436;2022-12-18T03:23:21;97290.81;;;-6.83;100.00
13604;BME280;24578;48.264;11.436;2022-12-18T03:26:25;97293.53;;;-6.69;100.00
13604;BME280;24578;48.264;11.436;2022-12-18T03:29:37;97297.03;;;-6.58;100.00
13604;BME280;24578;48.264;11.436;2022-12-18T03:36:00;97300.09;;;-6.81;100.00
13604;BME280;24578;48.264;11.436;2022-12-18T03:39:01;97293.56;;;-6.66;100.00
13604;BME280;24578;48.264;11.436;2022-12-18T03:42:15;97304.53;;;-6.61;100.00
13604;BME280;24578;48.264;11.436;2022-12-18T03:45:37;97293.63;;;-6.63;100.00
13604;BME280;24578;48.264;11.436;2022-12-18T03:48:48;97290.28;;;-6.62;100.00
13604;BME280;24578;48.264;11.436;2022-12-18T03:52:04;97295.13;;;-6.75;100.00
13604;BME280;24578;48.264;11.436;2022-12-18T03:55:08;97301.91;;;-6.69;100.00
13604;BME280;24578;48.264;11.436;2022-12-18T03:58:15;97310.25;;;-6.75;100.00
13604;BME280;24578;48.264;11.436;2022-12-18T04:01:22;97304.00;;;-6.38;100.00
13604;BME280;24578;48.264;11.436;2022-12-18T04:04:26;97312.81;;;-6.71;100.00
13604;BME280;24578;48.264;11.436;2022-12-18T04:07:28;97301.97;;;-6.67;100.00
13604;BME280;24578;48.264;11.436;2022-12-18T04:10:29;97297.75;;;-6.67;100.00
13604;BME280;24578;48.264;11.436;2022-12-18T04:13:36;97297.84;;;-6.61;100.00
13604;BME280;24578;48.264;11.436;2022-12-18T04:16:37;97293.88;;;-6.43;100.00
13604;BME280;24578;48.264;11.436;2022-12-18T04:19:37;97288.78;;;-6.45;100.00
13604;BME280;24578;48.264;11.436;2022-12-18T04:22:38;97311.50;;;-6.42;100.00
13604;BME280;24578;48.264;11.436;2022-12-18T04:25:38;97313.00;;;-6.56;100.00
13604;BME280;24578;48.264;11.436;2022-12-18T04:28:39;97309.66;;;-6.56;100.00
13604;BME280;24578;48.264;11.436;2022-12-18T04:31:40;97313.09;;;-6.48;100.00
13604;BME280;24578;48.264;11.436;2022-12-18T04:34:40;97292.94;;;-6.48;100.00
13604;BME280;24578;48.264;11.436;2022-12-18T04:37:41;97298.91;;;-6.42;100.00
13604;BME280;24578;48.264;11.436;2022-12-18T04:40:42;97288.91;;;-6.35;100.00
13604;BME280;24578;48.264;11.436;2022-12-18T04:43:43;97310.69;;;-6.40;100.00
13604;BME280;24578;48.264;11.436;2022-12-18T04:46:43;97332.53;;;-6.41;100.00
13604;BME280;24578;48.264;11.436;2022-12-18T04:49:44;97334.19;;;-6.42;100.00
13604;BME280;24578;48.264;11.436;2022-12-18T04:52:45;97331.63;;;-6.45;100.00
13604;BME280;24578;48.264;11.436;2022-12-18T04:55:45;97335.94;;;-6.37;100.00
13604;BME280;24578;48.264;11.436;2022-12-18T04:58:46;97336.66;;;-6.46;100.00
13604;BME280;24578;48.264;11.436;2022-12-18T05:01:46;97332.44;;;-6.49;100.00
13604;BME280;24578;48.264;11.436;2022-12-18T05:04:47;97332.63;;;-6.33;100.00
13604;BME280;24578;48.264;11.436;2022-12-18T05:07:47;97340.19;;;-6.32;100.00
13604;BME280;24578;48.264;11.436;2022-12-18T05:10:48;97341.84;;;-6.35;100.00
13604;BME280;24578;48.264;11.436;2022-12-18T05:13:49;97335.16;;;-6.33;100.00
13604;BME280;24578;48.264;11.436;2022-12-18T05:16:49;97322.53;;;-6.32;100.00
13604;BME280;24578;48.264;11.436;2022-12-18T05:19:53;97326.75;;;-6.31;100.00
13604;BME280;24578;48.264;11.436;2022-12-18T05:22:54;97348.53;;;-6.37;100.00
13604;BME280;24578;48.264;11.436;2022-12-18T05:25:57;97355.03;;;-6.53;100.00
13604;BME280;24578;48.264;11.436;2022-12-18T05:28:58;97356.91;;;-6.38;100.00
13604;BME280;24578;48.264;11.436;2022-12-18T05:31:58;97347.75;;;-6.33;100.00
13604;BME280;24578;48.264;11.436;2022-12-18T05:34:59;97345.91;;;-6.44;100.00
13604;BME280;24578;48.264;11.436;2022-12-18T05:38:00;97358.66;;;-6.33;100.00
13604;BME280;24578;48.264;11.436;2022-12-18T05:41:01;97355.06;;;-6.52;100.00
13604;BME280;24578;48.264;11.436;2022-12-18T05:44:01;97341.78;;;-6.38;100.00
13604;BME280;24578;48.264;11.436;2022-12-18T05:47:02;97349.34;;;-6.37;100.00
13604;BME280;24578;48.264;11.436;2022-12-18T05:50:03;97338.44;;;-6.37;100.00
13604;BME280;24578;48.264;11.436;2022-12-18T05:53:04;97351.03;;;-6.37;100.00
13604;BME280;24578;48.264;11.436;2022-12-18T05:56:08;97353.47;;;-6.45;100.00
13604;BME280;24578;48.264;11.436;2022-12-18T05:59:09;97339.28;;;-6.38;100.00
13604;BME280;24578;48.264;11.436;2022-12-18T06:02:10;97354.56;;;-6.23;100.00
13604;BME280;24578;48.264;11.436;2022-12-18T06:05:10;97353.66;;;-6.31;100.00
13604;BME280;24578;48.264;11.436;2022-12-18T06:08:12;97360.31;;;-6.35;100.00
13604;BME280;24578;48.264;11.436;2022-12-18T06:11:16;97351.09;;;-6.34;100.00
13604;BME280;24578;48.264;11.436;2022-12-18T06:14:17;97349.50;;;-6.26;100.00
13604;BME280;24578;48.264;11.436;2022-12-18T06:17:18;97363.88;;;-6.19;100.00
13604;BME280;24578;48.264;11.436;2022-12-18T06:20:18;97368.59;;;-6.44;100.00
13604;BME280;24578;48.264;11.436;2022-12-18T06:23:19;97367.03;;;-6.35;100.00
13604;BME280;24578;48.264;11.436;2022-12-18T06:26:20;97383.97;;;-6.25;100.00
13604;BME280;24578;48.264;11.436;2022-12-18T06:29:20;97378.94;;;-6.23;100.00
13604;BME280;24578;48.264;11.436;2022-12-18T06:32:21;97371.31;;;-6.28;100.00
13604;BME280;24578;48.264;11.436;2022-12-18T06:35:22;97375.44;;;-6.35;100.00
13604;BME280;24578;48.264;11.436;2022-12-18T06:38:22;97375.38;;;-6.39;100.00
13604;BME280;24578;48.264;11.436;2022-12-18T06:41:23;97390.41;;;-6.47;100.00
13604;BME280;24578;48.264;11.436;2022-12-18T06:44:24;97378.72;;;-6.42;100.00
13604;BME280;24578;48.264;11.436;2022-12-18T06:47:24;97393.69;;;-6.53;100.00
13604;BME280;24578;48.264;11.436;2022-12-18T06:50:25;97402.06;;;-6.52;100.00
13604;BME280;24578;48.264;11.436;2022-12-18T06:53:26;97383.81;;;-6.36;100.00
13604;BME280;24578;48.264;11.436;2022-12-18T06:56:27;97400.72;;;-6.29;100.00
13604;BME280;24578;48.264;11.436;2022-12-18T06:59:28;97403.19;;;-6.32;100.00
13604;BME280;24578;48.264;11.436;2022-12-18T07:02:29;97411.06;;;-6.10;100.00
13604;BME280;24578;48.264;11.436;2022-12-18T07:05:30;97416.06;;;-6.12;100.00
13604;BME280;24578;48.264;11.436;2022-12-18T07:08:31;97408.44;;;-6.15;100.00
13604;BME280;24578;48.264;11.436;2022-12-18T07:11:33;97417.75;;;-6.10;100.00
13604;BME280;24578;48.264;11.436;2022-12-18T07:14:33;97424.63;;;-6.00;100.00
13604;BME280;24578;48.264;11.436;2022-12-18T07:17:34;97431.47;;;-5.87;100.00
13604;BME280;24578;48.264;11.436;2022-12-18T07:20:35;97425.41;;;-6.04;100.00
13604;BME280;24578;48.264;11.436;2022-12-18T07:23:36;97421.03;;;-6.16;100.00
13604;BME280;24578;48.264;11.436;2022-12-18T07:26:36;97428.00;;;-5.97;100.00
13604;BME280;24578;48.264;11.436;2022-12-18T07:29:37;97422.13;;;-5.94;100.00
13604;BME280;24578;48.264;11.436;2022-12-18T07:32:37;97422.25;;;-5.83;100.00
13604;BME280;24578;48.264;11.436;2022-12-18T07:35:38;97415.47;;;-5.87;100.00
13604;BME280;24578;48.264;11.436;2022-12-18T07:38:39;97426.22;;;-6.05;100.00
13604;BME280;24578;48.264;11.436;2022-12-18T07:41:40;97426.34;;;-5.94;100.00
13604;BME280;24578;48.264;11.436;2022-12-18T07:44:46;97418.03;;;-5.83;100.00
13604;BME280;24578;48.264;11.436;2022-12-18T07:47:46;97424.00;;;-5.77;100.00
13604;BME280;24578;48.264;11.436;2022-12-18T07:50:47;97425.56;;;-5.89;100.00
13604;BME280;24578;48.264;11.436;2022-12-18T07:53:48;97424.69;;;-5.92;100.00
13604;BME280;24578;48.264;11.436;2022-12-18T07:56:48;97419.81;;;-5.77;100.00
13604;BME280;24578;48.264;11.436;2022-12-18T07:59:49;97422.59;;;-5.51;100.00
13604;BME280;24578;48.264;11.436;2022-12-18T08:02:49;97434.09;;;-5.76;100.00
13604;BME280;24578;48.264;11.436;2022-12-18T08:05:50;97426.44;;;-5.87;100.00
13604;BME280;24578;48.264;11.436;2022-12-18T08:08:52;97437.25;;;-5.94;100.00
13604;BME280;24578;48.264;11.436;2022-12-18T08:11:53;97446.56;;;-5.88;100.00
13604;BME280;24578;48.264;11.436;2022-12-18T08:14:53;97448.25;;;-5.87;100.00
13604;BME280;24578;48.264;11.436;2022-12-18T08:17:56;97466.84;;;-5.82;100.00
13604;BME280;24578;48.264;11.436;2022-12-18T08:20:57;97462.66;;;-5.80;100.00
13604;BME280;24578;48.264;11.436;2022-12-18T08:24:00;97437.44;;;-5.78;100.00
13604;BME280;24578;48.264;11.436;2022-12-18T08:27:01;97450.09;;;-5.75;100.00
13604;BME280;24578;48.264;11.436;2022-12-18T08:30:03;97456.00;;;-5.73;100.00
13604;BME280;24578;48.264;11.436;2022-12-18T08:33:04;97461.00;;;-5.78;100.00
13604;BME280;24578;48.264;11.436;2022-12-18T08:36:08;97461.00;;;-5.76;100.00
13604;BME280;24578;48.264;11.436;2022-12-18T08:39:09;97466.09;;;-5.72;100.00
13604;BME280;24578;48.264;11.436;2022-12-18T08:42:10;97452.84;;;-5.57;100.00
13604;BME280;24578;48.264;11.436;2022-12-18T08:45:30;97462.66;;;-5.78;100.00
13604;BME280;24578;48.264;11.436;2022-12-18T08:48:30;97456.84;;;-5.73;100.00
13604;BME280;24578;48.264;11.436;2022-12-18T08:51:32;97452.63;;;-5.74;100.00
13604;BME280;24578;48.264;11.436;2022-12-18T08:54:33;97455.28;;;-5.63;100.00
13604;BME280;24578;48.264;11.436;2022-12-18T08:57:33;97468.84;;;-5.52;100.00
13604;BME280;24578;48.264;11.436;2022-12-18T09:00:34;97476.47;;;-5.50;100.00
13604;BME280;24578;48.264;11.436;2022-12-18T09:03:35;97475.81;;;-5.33;100.00
13604;BME280;24578;48.264;11.436;2022-12-18T09:06:36;97477.41;;;-5.39;100.00
13604;BME280;24578;48.264;11.436;2022-12-18T09:09:37;97483.16;;;-5.51;100.00
13604;BME280;24578;48.264;11.436;2022-12-18T09:12:37;97468.19;;;-5.37;100.00
13604;BME280;24578;48.264;11.436;2022-12-18T09:15:47;97485.88;;;-5.35;100.00
13604;BME280;24578;48.264;11.436;2022-12-18T09:18:48;97481.56;;;-5.45;100.00
13604;BME280;24578;48.264;11.436;2022-12-18T09:21:49;97468.03;;;-5.54;100.00
13604;BME280;24578;48.264;11.436;2022-12-18T09:24:49;97473.06;;;-5.51;100.00
13604;BME280;24578;48.264;11.436;2022-12-18T09:27:50;97466.53;;;-5.33;100.00
13604;BME280;24578;48.264;11.436;2022-12-18T09:30:51;97466.50;;;-5.38;100.00
13604;BME280;24578;48.264;11.436;2022-12-18T09:33:51;97460.41;;;-5.57;100.00
13604;BME280;24578;48.264;11.436;2022-12-18T09:36:52;97464.81;;;-5.37;100.00
13604;BME280;24578;48.264;11.436;2022-12-18T09:39:52;97465.00;;;-5.18;100.00
13604;BME280;24578;48.264;11.436;2022-12-18T09:43:00;97467.56;;;-5.17;100.00
13604;BME280;24578;48.264;11.436;2022-12-18T09:46:11;97456.78;;;-5.00;100.00
13604;BME280;24578;48.264;11.436;2022-12-18T09:49:21;97462.53;;;-5.12;100.00
13604;BME280;24578;48.264;11.436;2022-12-18T09:52:37;97450.75;;;-5.15;100.00
13604;BME280;24578;48.264;11.436;2022-12-18T09:55:42;97440.72;;;-5.04;100.00
13604;BME280;24578;48.264;11.436;2022-12-18T09:58:53;97445.94;;;-4.85;100.00
13604;BME280;24578;48.264;11.436;2022-12-18T10:01:56;97444.13;;;-5.00;100.00
13604;BME280;24578;48.264;11.436;2022-12-18T10:05:10;97447.47;;;-5.03;100.00
13604;BME280;24578;48.264;11.436;2022-12-18T10:12:17;97435.88;;;-4.81;100.00
13604;BME280;24578;48.264;11.436;2022-12-18T10:19:08;97434.28;;;-4.69;100.00
13604;BME280;24578;48.264;11.436;2022-12-18T10:25:24;97429.34;;;-4.54;100.00
13604;BME280;24578;48.264;11.436;2022-12-18T10:28:30;97428.38;;;-4.71;100.00
13604;BME280;24578;48.264;11.436;2022-12-18T10:31:31;97422.47;;;-4.74;100.00
13604;BME280;24578;48.264;11.436;2022-12-18T10:34:32;97427.66;;;-4.49;100.00
13604;BME280;24578;48.264;11.436;2022-12-18T10:37:32;97419.16;;;-4.65;100.00
13604;BME280;24578;48.264;11.436;2022-12-18T10:44:21;97422.41;;;-4.80;100.00
13604;BME280;24578;48.264;11.436;2022-12-18T10:47:22;97422.91;;;-5.21;100.00
13604;BME280;24578;48.264;11.436;2022-12-18T10:50:32;97416.28;;;-5.07;100.00
13604;BME280;24578;48.264;11.436;2022-12-18T10:53:35;97417.25;;;-4.92;100.00
13604;BME280;24578;48.264;11.436;2022-12-18T10:56:37;97416.63;;;-4.65;100.00
13604;BME280;24578;48.264;11.436;2022-12-18T10:59:51;97426.03;;;-4.42;100.00
13604;BME280;24578;48.264;11.436;2022-12-18T11:02:53;97427.78;;;-4.32;100.00
13604;BME280;24578;48.264;11.436;2022-12-18T11:06:22;97440.16;;;-4.69;100.00
13604;BME280;24578;48.264;11.436;2022-12-18T11:09:27;97436.84;;;-4.65;100.00
13604;BME280;24578;48.264;11.436;2022-12-18T11:12:29;97449.63;;;-4.43;100.00
13604;BME280;24578;48.264;11.436;2022-12-18T11:15:30;97448.66;;;-4.64;100.00
13604;BME280;24578;48.264;11.436;2022-12-18T11:18:35;97442.78;;;-4.58;100.00
13604;BME280;24578;48.264;11.436;2022-12-18T11:21:41;97422.59;;;-4.53;100.00
13604;BME280;24578;48.264;11.436;2022-12-18T11:24:42;97437.78;;;-4.50;100.00
13604;BME280;24578;48.264;11.436;2022-12-18T11:27:52;97441.16;;;-4.48;100.00
13604;BME280;24578;48.264;11.436;2022-12-18T11:31:16;97440.34;;;-4.47;100.00
13604;BME280;24578;48.264;11.436;2022-12-18T11:34:28;97432.75;;;-4.47;100.00
13604;BME280;24578;48.264;11.436;2022-12-18T11:37:32;97437.03;;;-4.38;100.00
13604;BME280;24578;48.264;11.436;2022-12-18T11:40:36;97422.63;;;-4.52;100.00
13604;BME280;24578;48.264;11.436;2022-12-18T11:44:01;97416.69;;;-4.52;100.00
13604;BME280;24578;48.264;11.436;2022-12-18T11:47:15;97407.44;;;-4.50;100.00
13604;BME280;24578;48.264;11.436;2022-12-18T11:50:47;97420.13;;;-4.46;100.00
13604;BME280;24578;48.264;11.436;2022-12-18T11:53:44;97421.75;;;-4.51;100.00
13604;BME280;24578;48.264;11.436;2022-12-18T11:56:58;97409.81;;;-4.75;100.00
13604;BME280;24578;48.264;11.436;2022-12-18T12:00:18;97414.66;;;-5.00;100.00
13604;BME280;24578;48.264;11.436;2022-12-18T12:13:30;97395.41;;;-4.87;100.00
13604;BME280;24578;48.264;11.436;2022-12-18T12:16:58;97394.66;;;-4.72;100.00
13604;BME280;24578;48.264;11.436;2022-12-18T12:23:41;97398.16;;;-4.51;100.00
13604;BME280;24578;48.264;11.436;2022-12-18T12:34:00;97386.22;;;-4.77;100.00
13604;BME280;24578;48.264;11.436;2022-12-18T12:40:27;97386.06;;;-4.99;100.00
13604;BME280;24578;48.264;11.436;2022-12-18T12:43:38;97386.72;;;-5.22;100.00
13604;BME280;24578;48.264;11.436;2022-12-18T12:46:43;97384.84;;;-5.40;100.00
13604;BME280;24578;48.264;11.436;2022-12-18T12:49:45;97390.16;;;-5.13;100.00
13604;BME280;24578;48.264;11.436;2022-12-18T12:52:54;97387.78;;;-4.93;100.00
13604;BME280;24578;48.264;11.436;2022-12-18T12:55:57;97396.78;;;-5.23;100.00
13604;BME280;24578;48.264;11.436;2022-12-18T13:05:59;97388.78;;;-4.71;100.00
13604;BME280;24578;48.264;11.436;2022-12-18T13:09:03;97398.22;;;-4.44;100.00
13604;BME280;24578;48.264;11.436;2022-12-18T13:12:10;97396.50;;;-4.49;100.00
13604;BME280;24578;48.264;11.436;2022-12-18T13:16:06;97401.59;;;-4.45;100.00
13604;BME280;24578;48.264;11.436;2022-12-18T13:19:21;97383.09;;;-4.37;100.00
13604;BME280;24578;48.264;11.436;2022-12-18T13:22:30;97403.31;;;-4.36;100.00
13604;BME280;24578;48.264;11.436;2022-12-18T13:25:37;97400.81;;;-4.31;100.00
13604;BME280;24578;48.264;11.436;2022-12-18T13:41:31;97383.69;;;-4.74;100.00
13604;BME280;24578;48.264;11.436;2022-12-18T13:44:35;97383.47;;;-5.08;100.00
13604;BME280;24578;48.264;11.436;2022-12-18T13:47:37;97384.19;;;-5.18;100.00
13604;BME280;24578;48.264;11.436;2022-12-18T13:50:38;97381.81;;;-5.06;100.00
13604;BME280;24578;48.264;11.436;2022-12-18T13:53:47;97370.88;;;-5.03;100.00
13604;BME280;24578;48.264;11.436;2022-12-18T13:56:49;97374.31;;;-4.94;100.00
13604;BME280;24578;48.264;11.436;2022-12-18T13:59:50;97368.47;;;-4.85;100.00
13604;BME280;24578;48.264;11.436;2022-12-18T14:02:51;97370.72;;;-5.21;100.00
13604;BME280;24578;48.264;11.436;2022-12-18T14:05:56;97369.00;;;-5.25;100.00
13604;BME280;24578;48.264;11.436;2022-12-18T14:08:58;97374.78;;;-5.38;100.00
13604;BME280;24578;48.264;11.436;2022-12-18T14:11:59;97382.28;;;-5.43;100.00
13604;BME280;24578;48.264;11.436;2022-12-18T14:18:42;97381.50;;;-5.40;100.00
13604;BME280;24578;48.264;11.436;2022-12-18T14:21:49;97381.72;;;-5.17;100.00
13604;BME280;24578;48.264;11.436;2022-12-18T14:25:26;97396.88;;;-5.11;100.00
13604;BME280;24578;48.264;11.436;2022-12-18T14:28:26;97380.81;;;-5.21;100.00
13604;BME280;24578;48.264;11.436;2022-12-18T14:31:30;97387.56;;;-5.20;100.00
13604;BME280;24578;48.264;11.436;2022-12-18T14:34:30;97394.22;;;-5.26;100.00
13604;BME280;24578;48.264;11.436;2022-12-18T14:37:31;97380.09;;;-5.06;100.00
13604;BME280;24578;48.264;11.436;2022-12-18T14:40:32;97388.38;;;-5.21;100.00
13604;BME280;24578;48.264;11.436;2022-12-18T14:43:37;97380.59;;;-5.44;100.00
13604;BME280;24578;48.264;11.436;2022-12-18T14:46:42;97386.59;;;-5.34;100.00
13604;BME280;24578;48.264;11.436;2022-12-18T14:49:44;97386.31;;;-5.62;100.00
13604;BME280;24578;48.264;11.436;2022-12-18T14:52:45;97384.75;;;-5.54;100.00
13604;BME280;24578;48.264;11.436;2022-12-18T14:55:48;97390.66;;;-5.48;100.00
13604;BME280;24578;48.264;11.436;2022-12-18T14:59:01;97383.09;;;-5.48;100.00
13604;BME280;24578;48.264;11.436;2022-12-18T15:05:19;97387.97;;;-5.64;100.00
13604;BME280;24578;48.264;11.436;2022-12-18T15:08:37;97378.72;;;-5.67;100.00
13604;BME280;24578;48.264;11.436;2022-12-18T15:14:41;97390.47;;;-5.67;100.00
13604;BME280;24578;48.264;11.436;2022-12-18T15:17:42;97381.06;;;-5.81;100.00
13604;BME280;24578;48.264;11.436;2022-12-18T15:20:56;97376.88;;;-5.82;100.00
13604;BME280;24578;48.264;11.436;2022-12-18T15:23:59;97374.34;;;-5.83;100.00
13604;BME280;24578;48.264;11.436;2022-12-18T15:27:00;97376.94;;;-5.75;100.00
13604;BME280;24578;48.264;11.436;2022-12-18T15:33:25;97390.97;;;-6.02;100.00
13604;BME280;24578;48.264;11.436;2022-12-18T15:36:26;97379.34;;;-5.86;100.00
13604;BME280;24578;48.264;11.436;2022-12-18T15:39:26;97381.91;;;-5.85;100.00
13604;BME280;24578;48.264;11.436;2022-12-18T15:42:28;97380.25;;;-5.79;100.00
13604;BME280;24578;48.264;11.436;2022-12-18T15:45:47;97380.28;;;-5.78;100.00
13604;BME280;24578;48.264;11.436;2022-12-18T15:48:53;97374.22;;;-5.96;100.00
13604;BME280;24578;48.264;11.436;2022-12-18T15:51:58;97391.97;;;-5.85;100.00
13604;BME280;24578;48.264;11.436;2022-12-18T15:54:59;97382.66;;;-5.90;100.00
13604;BME280;24578;48.264;11.436;2022-12-18T15:58:19;97390.94;;;-5.99;100.00
13604;BME280;24578;48.264;11.436;2022-12-18T16:01:24;97374.88;;;-6.10;100.00
13604;BME280;24578;48.264;11.436;2022-12-18T16:04:25;97378.31;;;-6.05;100.00
13604;BME280;24578;48.264;11.436;2022-12-18T16:07:26;97375.00;;;-6.01;100.00
13604;BME280;24578;48.264;11.436;2022-12-18T16:10:27;97378.44;;;-5.93;100.00
13604;BME280;24578;48.264;11.436;2022-12-18T16:13:28;97382.59;;;-5.97;100.00
13604;BME280;24578;48.264;11.436;2022-12-18T16:16:28;97385.94;;;-5.96;100.00
13604;BME280;24578;48.264;11.436;2022-12-18T16:19:29;97363.38;;;-5.84;100.00
13604;BME280;24578;48.264;11.436;2022-12-18T16:22:30;97369.16;;;-5.96;100.00
13604;BME280;24578;48.264;11.436;2022-12-18T16:25:30;97370.81;;;-6.02;100.00
13604;BME280;24578;48.264;11.436;2022-12-18T16:28:31;97369.16;;;-5.94;100.00
13604;BME280;24578;48.264;11.436;2022-12-18T16:31:32;97379.28;;;-5.92;100.00
13604;BME280;24578;48.264;11.436;2022-12-18T16:34:34;97381.00;;;-5.90;100.00
13604;BME280;24578;48.264;11.436;2022-12-18T16:37:35;97381.81;;;-5.92;100.00
13604;BME280;24578;48.264;11.436;2022-12-18T16:40:35;97382.59;;;-6.01;100.00
13604;BME280;24578;48.264;11.436;2022-12-18T16:43:57;97364.84;;;-6.06;100.00
13604;BME280;24578;48.264;11.436;2022-12-18T16:46:57;97369.81;;;-6.15;100.00
13604;BME280;24578;48.264;11.436;2022-12-18T16:50:03;97372.31;;;-6.15;100.00
13604;BME280;24578;48.264;11.436;2022-12-18T16:53:03;97373.16;;;-6.16;100.00
13604;BME280;24578;48.264;11.436;2022-12-18T16:56:04;97362.31;;;-6.07;100.00
13604;BME280;24578;48.264;11.436;2022-12-18T16:59:04;97378.31;;;-6.04;100.00
13604;BME280;24578;48.264;11.436;2022-12-18T17:02:10;97372.41;;;-6.07;100.00
13604;BME280;24578;48.264;11.436;2022-12-18T17:05:12;97383.22;;;-6.18;100.00
13604;BME280;24578;48.264;11.436;2022-12-18T17:08:12;97376.63;;;-6.06;100.00
13604;BME280;24578;48.264;11.436;2022-12-18T17:11:13;97368.97;;;-6.13;100.00
13604;BME280;24578;48.264;11.436;2022-12-18T17:14:18;97368.00;;;-6.24;100.00
13604;BME280;24578;48.264;11.436;2022-12-18T17:17:19;97359.63;;;-6.23;100.00
13604;BME280;24578;48.264;11.436;2022-12-18T17:20:19;97350.41;;;-6.21;100.00
13604;BME280;24578;48.264;11.436;2022-12-18T17:23:20;97354.72;;;-6.10;100.00